メインページ
METAR-TAF:

METAR-TAF

空港 :

Maragheh, イラン

緯度: 37-20-55N, 経度: 046-07-35E, 海抜: 1340m

現時点の気象観測

当レポートは1時間11分前の17:00(UTC)に作成
の風 4kt
気温 2°C
湿度 44%
気圧 1025 hPa
視程10km以上
1,500メートル以下は雲なし、積乱雲なし

METAR: OITM 171700Z 08004KT CAVOK 02/M09 Q1025

時間: 21:41 (18:11 UTC)


TAF: 見つかりません

4,000以上の空港の気象観測と天気予報(METAR報とTAF報)

利用可能な観測所は地図上に黄色い丸と赤い丸で示す。

丸の上にカーソルを重ねると観測所名を参照できる。

次にクリックすると気象観測と天気予報を参照できる。

マップの切り替え:黒色「×」印の緑ボタンをクリックして拡大、「-」印の緑ボタンをクリックして縮小、緑色の三角印をクリックして隣りの地図に切り替え


METAR-TAF: